Time;durP1;ratioP1;P1;durP2;ratioP2;P2;SDS_P1;SDS_P2;PMS_P1;PMS_P2;Temp;Humidity;BMP_temperature;BMP_pressure;BME280_temperature;BME280_humidity;BME280_pressure;Samples;Min_cycle;Max_cycle;Signal;HPM_P1;HPM_P2
2023/01/29 00:00:44;;;;;;;10.60;6.95;;;;;;;;;;4780197;29;20058;-88
2023/01/29 00:03:10;;;;;;;8.85;6.57;;;;;;;;;;4810148;29;20056;-88
2023/01/29 00:05:36;;;;;;;9.07;7.00;;;;;;;;;;4810069;29;20120;-89
2023/01/29 00:08:02;;;;;;;11.18;6.90;;;;;;;;;;4795359;29;20054;-89
2023/01/29 00:10:28;;;;;;;13.07;7.75;;;;;;;;;;4810321;29;20089;-88
2023/01/29 00:12:55;;;;;;;10.18;7.47;;;;;;;;;;4779984;29;20058;-88
2023/01/29 00:15:21;;;;;;;13.05;7.85;;;;;;;;;;4810237;29;20054;-89
2023/01/29 00:17:47;;;;;;;15.20;7.93;;;;;;;;;;4809531;29;20053;-88
2023/01/29 00:20:13;;;;;;;14.68;8.18;;;;;;;;;;4779330;29;20054;-91
2023/01/29 00:22:39;;;;;;;12.15;8.35;;;;;;;;;;4809446;29;20121;-89
2023/01/29 00:25:05;;;;;;;14.15;7.78;;;;;;;;;;4810509;29;20046;-90
2023/01/29 00:27:31;;;;;;;12.05;7.97;;;;;;;;;;4809224;29;20059;-93
2023/01/29 00:30:10;;;;;;;10.93;7.03;;;;;;;;;;4794637;29;20111;-88
2023/01/29 00:32:37;;;;;;;15.88;8.82;;;;;;;;;;4780889;29;20058;-91
2023/01/29 00:35:03;;;;;;;9.07;7.20;;;;;;;;;;4779859;29;20516;-91
2023/01/29 00:37:29;;;;;;;11.63;7.65;;;;;;;;;;4779620;29;20058;-90
2023/01/29 00:39:55;;;;;;;15.52;7.78;;;;;;;;;;4809616;29;20054;-93
2023/01/29 00:45:06;;;;;;;14.32;9.00;;;;;;;;;;4796063;29;20046;-89
2023/01/29 00:47:32;;;;;;;11.88;8.10;;;;;;;;;;4779017;29;20061;-90
2023/01/29 00:49:59;;;;;;;16.95;8.57;;;;;;;;;;4809853;29;20144;-87
2023/01/29 00:52:25;;;;;;;15.15;8.07;;;;;;;;;;4813707;29;20461;-91
2023/01/29 00:54:56;;;;;;;12.27;7.43;;;;;;;;;;4810116;29;20051;-91
2023/01/29 00:57:23;;;;;;;16.80;9.00;;;;;;;;;;4810198;29;20062;-88
2023/01/29 00:59:49;;;;;;;13.95;8.95;;;;;;;;;;4810688;29;20509;-92
2023/01/29 01:05:04;;;;;;;14.35;8.50;;;;;;;;;;4808848;29;20054;-91
2023/01/29 01:07:31;;;;;;;10.73;8.70;;;;;;;;;;4808278;29;20050;-88
2023/01/29 01:12:42;;;;;;;15.20;8.38;;;;;;;;;;4808521;29;20057;-88
2023/01/29 01:15:08;;;;;;;14.85;8.20;;;;;;;;;;4778625;29;20532;-88
2023/01/29 01:17:35;;;;;;;12.93;8.63;;;;;;;;;;4808613;29;20567;-89
2023/01/29 01:20:01;;;;;;;13.13;7.70;;;;;;;;;;4808392;29;20062;-89
2023/01/29 01:22:27;;;;;;;10.32;7.80;;;;;;;;;;4808373;29;20459;-89
2023/01/29 01:24:53;;;;;;;12.98;7.85;;;;;;;;;;4779003;29;20278;-88
2023/01/29 01:27:19;;;;;;;14.65;7.88;;;;;;;;;;4808462;29;20062;-90
2023/01/29 01:29:45;;;;;;;11.48;7.93;;;;;;;;;;4808253;29;20101;-90
2023/01/29 01:32:12;;;;;;;12.00;7.97;;;;;;;;;;4808506;29;20538;-88
2023/01/29 01:34:38;;;;;;;12.45;7.75;;;;;;;;;;4793508;29;20432;-89
2023/01/29 01:37:04;;;;;;;13.73;8.20;;;;;;;;;;4793438;29;20439;-89
2023/01/29 01:39:30;;;;;;;14.52;7.85;;;;;;;;;;4779379;29;20089;-89
2023/01/29 01:41:56;;;;;;;9.95;7.03;;;;;;;;;;4778127;29;20061;-88
2023/01/29 01:44:41;;;;;;;13.10;8.70;;;;;;;;;;4808040;29;20427;-88
2023/01/29 01:47:07;;;;;;;11.60;7.68;;;;;;;;;;4808277;29;20062;-88
2023/01/29 01:49:33;;;;;;;11.70;8.13;;;;;;;;;;4792983;29;20073;-88
2023/01/29 01:51:59;;;;;;;12.65;7.80;;;;;;;;;;4807803;29;20145;-87
2023/01/29 01:54:30;;;;;;;15.65;8.18;;;;;;;;;;4808007;29;20054;-88
2023/01/29 01:57:10;;;;;;;13.18;8.70;;;;;;;;;;4807928;29;20192;-88
2023/01/29 01:59:37;;;;;;;14.48;8.93;;;;;;;;;;4808604;29;20157;-87
2023/01/29 02:10:27;;;;;;;15.93;8.98;;;;;;;;;;4807792;29;20665;-88
2023/01/29 02:12:53;;;;;;;15.07;8.98;;;;;;;;;;4810260;29;20081;-88
2023/01/29 02:15:19;;;;;;;20.42;9.48;;;;;;;;;;4811613;29;20090;-88
2023/01/29 02:17:47;;;;;;;14.05;9.70;;;;;;;;;;4811911;29;20058;-90
2023/01/29 02:20:31;;;;;;;14.65;9.30;;;;;;;;;;4811635;29;20046;-89
2023/01/29 02:23:22;;;;;;;18.27;10.40;;;;;;;;;;4811544;29;20058;-87
2023/01/29 02:26:25;;;;;;;14.70;9.85;;;4.50;99.90;;;;;;4811698;29;20058;-89
2023/01/29 02:29:25;;;;;;;17.05;10.48;;;;;;;;;;4811182;29;20493;-91
2023/01/29 02:31:56;;;;;;;17.38;9.88;;;;;;;;;;4768941;29;20516;-91
2023/01/29 02:37:38;;;;;;;16.48;10.02;;;;;;;;;;4811420;29;20058;-91
2023/01/29 02:40:19;;;;;;;15.05;10.40;;;;;;;;;;4811129;29;20069;-90
2023/01/29 02:43:21;;;;;;;16.80;10.85;;;;;;;;;;4811503;29;20145;-91
2023/01/29 02:45:53;;;;;;;22.10;12.05;;;;;;;;;;4724895;30;20475;-90
2023/01/29 02:48:22;;;;;;;17.17;10.73;;;;;;;;;;4785484;29;20149;-90
2023/01/29 02:50:53;;;;;;;14.48;9.80;;;;;;;;;;4811090;29;20092;-92
2023/01/29 02:53:25;;;;;;;19.08;11.60;;;;;;;;;;4811166;29;20059;-91
2023/01/29 02:55:53;;;;;;;17.50;10.70;;;;;;;;;;4811152;29;20086;-89
2023/01/29 02:58:28;;;;;;;37.85;12.50;;;;;;;;;;4810862;29;20635;-89
2023/01/29 03:00:57;;;;;;;18.67;11.88;;;;;;;;;;4810433;29;20069;-88
2023/01/29 03:03:25;;;;;;;20.23;12.27;;;;;;;;;;4810506;29;20058;-88
2023/01/29 03:05:55;;;;;;;20.55;10.65;;;;;;;;;;4810889;29;20091;-91
2023/01/29 03:08:35;;;;;;;19.50;12.30;;;;;;;;;;4810313;29;20138;-88
2023/01/29 03:11:03;;;;;;;21.50;14.30;;;;;;;;;;4810628;29;20062;-89
2023/01/29 03:13:36;;;;;;;19.65;12.10;;;;;;;;;;4810545;29;20085;-87
2023/01/29 03:16:07;;;;;;;21.15;13.27;;;;;;;;;;4810670;29;20054;-88
2023/01/29 03:18:40;;;;;;;23.00;14.02;;;;;;;;;;4810639;29;20431;-88
2023/01/29 03:21:49;;;;;;;25.85;13.02;;;;;;;;;;4810129;29;20050;-88
2023/01/29 03:32:18;;;;;;;30.00;17.75;;;;;;;;;;4810382;29;20056;-90
2023/01/29 03:34:51;;;;;;;34.92;19.05;;;4.50;99.90;;;;;;4810399;29;20065;-91
2023/01/29 03:37:21;;;;;;;24.15;14.50;;;;;;;;;;4810676;29;20054;-91
2023/01/29 03:39:47;;;;;;;26.60;16.58;;;;;;;;;;4810672;29;20425;-90
2023/01/29 03:42:35;;;;;;;28.52;18.35;;;;;;;;;;4796454;29;20072;-91
2023/01/29 03:45:07;;;;;;;29.25;16.55;;;;;;;;;;4810580;29;20066;-87
2023/01/29 03:47:49;;;;;;;29.90;16.38;;;;;;;;;;4809644;29;20509;-88
2023/01/29 03:50:30;;;;;;;26.58;17.70;;;;;;;;;;4809768;29;20058;-87
2023/01/29 03:53:01;;;;;;;25.65;13.98;;;;;;;;;;4809924;29;20065;-87
2023/01/29 03:55:40;;;;;;;28.52;17.20;;;;;;;;;;4809529;29;20081;-87
2023/01/29 03:58:40;;;;;;;27.30;15.75;;;4.70;99.90;;;;;;4809576;29;20088;-87
2023/01/29 04:01:28;;;;;;;27.85;16.92;;;;;;;;;;4809453;29;20147;-89
2023/01/29 04:04:04;;;;;;;27.52;15.05;;;4.50;99.90;;;;;;4809598;29;20105;-88
2023/01/29 04:06:32;;;;;;;24.98;15.13;;;;;;;;;;4791579;29;20113;-87
2023/01/29 04:09:02;;;;;;;26.20;16.48;;;;;;;;;;4809780;29;20058;-88
2023/01/29 04:11:29;;;;;;;25.75;15.32;;;;;;;;;;4809639;29;20137;-88
2023/01/29 04:13:55;;;;;;;23.38;15.20;;;;;;;;;;4779417;29;20050;-88
2023/01/29 04:16:27;;;;;;;21.20;14.57;;;;;;;;;;4809411;29;20050;-87
2023/01/29 04:18:54;;;;;;;28.92;14.82;;;;;;;;;;4809068;29;20505;-87
2023/01/29 04:21:20;;;;;;;23.33;14.38;;;;;;;;;;4808808;29;20069;-87
2023/01/29 04:23:46;;;;;;;22.55;14.07;;;;;;;;;;4808794;29;20517;-87
2023/01/29 04:26:33;;;;;;;24.02;14.23;;;;;;;;;;4809085;29;20143;-87
2023/01/29 04:29:11;;;;;;;24.13;15.13;;;;;;;;;;4793419;29;20393;-87
2023/01/29 04:31:51;;;;;;;23.30;14.43;;;;;;;;;;4808729;29;20062;-87
2023/01/29 04:34:34;;;;;;;26.70;15.93;;;4.60;99.90;;;;;;4808811;29;20147;-87
2023/01/29 04:37:06;;;;;;;22.52;14.10;;;;;;;;;;4808726;29;20115;-87
2023/01/29 04:39:55;;;;;;;23.35;15.05;;;;;;;;;;4808680;29;20046;-87
2023/01/29 04:42:25;;;;;;;24.23;15.15;;;;;;;;;;4760725;29;20066;-88
2023/01/29 04:45:24;;;;;;;24.33;14.18;;;;;;;;;;4808707;29;20054;-88
2023/01/29 04:48:10;;;;;;;23.40;14.35;;;;;;;;;;4764150;29;20507;-88
2023/01/29 04:50:41;;;;;;;24.67;14.88;;;;;;;;;;4808531;29;20065;-89
2023/01/29 04:53:15;;;;;;;24.88;13.52;;;;;;;;;;4809051;29;20085;-89
2023/01/29 04:55:41;;;;;;;24.13;14.18;;;;;;;;;;4808705;29;20483;-88
2023/01/29 04:58:16;;;;;;;25.48;14.80;;;;;;;;;;4808754;29;20163;-87
2023/01/29 05:00:48;;;;;;;24.13;14.25;;;;;;;;;;4808260;29;20061;-87
2023/01/29 05:03:15;;;;;;;23.42;15.07;;;;;;;;;;4808817;29;20412;-90
2023/01/29 05:05:42;;;;;;;21.85;13.45;;;;;;;;;;4808660;29;20054;-90
2023/01/29 05:08:10;;;;;;;19.75;13.10;;;;;;;;;;4808393;29;20141;-87
2023/01/29 05:10:37;;;;;;;20.27;12.40;;;;;;;;;;4808457;29;20062;-88
2023/01/29 05:13:05;;;;;;;17.63;12.63;;;;;;;;;;4808180;29;20050;-88
2023/01/29 05:15:51;;;;;;;21.80;13.80;;;;;;;;;;4808555;29;20428;-89
2023/01/29 05:18:18;;;;;;;21.38;13.30;;;;;;;;;;4795851;29;20054;-89
2023/01/29 05:20:44;;;;;;;22.73;13.02;;;;;;;;;;4778448;29;20069;-87
2023/01/29 05:23:15;;;;;;;22.33;13.75;;;;;;;;;;4808290;29;20575;-88
2023/01/29 05:25:41;;;;;;;18.45;11.63;;;;;;;;;;4808035;29;20061;-88
2023/01/29 05:28:17;;;;;;;19.52;12.43;;;;;;;;;;4808278;29;20381;-89
2023/01/29 05:30:43;;;;;;;19.75;12.75;;;;;;;;;;4807892;29;20062;-87
2023/01/29 05:33:14;;;;;;;24.52;15.25;;;;;;;;;;4808276;29;20149;-89
2023/01/29 05:35:41;;;;;;;20.58;13.20;;;;;;;;;;4808281;29;20058;-88
2023/01/29 05:38:07;;;;;;;24.40;15.45;;;;;;;;;;4808024;29;20086;-88
2023/01/29 05:40:33;;;;;;;22.38;13.63;;;;;;;;;;4793232;29;20058;-87
2023/01/29 05:42:59;;;;;;;19.45;12.50;;;;;;;;;;4807824;29;20054;-87
2023/01/29 05:45:25;;;;;;;18.90;12.10;;;;;;;;;;4778356;29;20054;-87
2023/01/29 05:47:55;;;;;;;22.35;15.70;;;;;;;;;;4781980;29;20055;-86
2023/01/29 05:50:21;;;;;;;27.55;14.63;;;;;;;;;;4813781;29;20050;-88
2023/01/29 05:52:47;;;;;;;20.02;13.13;;;;;;;;;;4784010;29;20460;-88
2023/01/29 05:55:13;;;;;;;19.23;13.10;;;;;;;;;;4814142;29;20500;-88
2023/01/29 05:57:40;;;;;;;18.13;12.25;;;;;;;;;;4813677;29;20141;-88
2023/01/29 06:00:07;;;;;;;18.90;13.15;;;;;;;;;;4814465;29;20118;-88
2023/01/29 06:02:33;;;;;;;20.50;11.95;;;;;;;;;;4814228;29;20054;-87
2023/01/29 06:04:59;;;;;;;22.17;14.43;;;;;;;;;;4813948;29;20489;-88
2023/01/29 06:07:26;;;;;;;19.73;12.63;;;;;;;;;;4813875;29;20533;-89
2023/01/29 06:09:52;;;;;;;23.88;15.73;;;;;;;;;;4814024;29;20065;-88
2023/01/29 06:12:18;;;;;;;24.80;14.23;;;;;;;;;;4784191;29;20141;-88
2023/01/29 06:14:44;;;;;;;22.35;14.15;;;;;;;;;;4813676;29;20062;-89
2023/01/29 06:17:10;;;;;;;21.73;13.57;;;;;;;;;;4783947;29;20145;-89
2023/01/29 06:19:36;;;;;;;22.48;14.35;;;;;;;;;;4798869;29;20062;-88
2023/01/29 06:22:02;;;;;;;22.55;13.30;;;;;;;;;;4798890;29;20115;-88
2023/01/29 06:24:28;;;;;;;26.00;15.63;;;;;;;;;;4783659;29;20058;-87
2023/01/29 06:26:54;;;;;;;25.55;13.93;;;;;;;;;;4813274;29;20090;-88
2023/01/29 06:29:21;;;;;;;23.45;14.50;;;;;;;;;;4783287;29;20444;-88
2023/01/29 06:31:47;;;;;;;25.08;15.18;;;;;;;;;;4813687;29;20171;-89
2023/01/29 06:34:13;;;;;;;24.80;17.15;;;;;;;;;;4813562;29;20050;-88
2023/01/29 06:36:40;;;;;;;27.60;15.82;;;;;;;;;;4798406;29;20585;-89
2023/01/29 06:39:06;;;;;;;26.25;14.73;;;;;;;;;;4799462;29;20062;-88
2023/01/29 06:41:32;;;;;;;27.27;16.25;;;;;;;;;;4813727;29;20145;-89
2023/01/29 06:43:58;;;;;;;29.35;16.23;;;;;;;;;;4784294;29;20058;-91
2023/01/29 06:46:25;;;;;;;25.98;15.27;;;;;;;;;;4783897;29;20066;-92
2023/01/29 06:48:51;;;;;;;26.20;17.15;;;;;;;;;;4798968;29;20065;-88
2023/01/29 06:51:17;;;;;;;27.50;17.90;;;;;;;;;;4813550;29;20054;-88
2023/01/29 06:53:43;;;;;;;30.90;18.60;;;;;;;;;;4813199;29;20050;-87
2023/01/29 06:56:09;;;;;;;26.92;18.45;;;;;;;;;;4798181;29;20128;-88
2023/01/29 06:58:38;;;;;;;24.42;17.17;;;;;;;;;;4811124;29;20058;-87
2023/01/29 07:01:09;;;;;;;33.63;19.30;;;;;;;;;;4810411;29;20054;-89
2023/01/29 07:03:35;;;;;;;34.47;19.17;;;;;;;;;;4810761;29;20389;-88
2023/01/29 07:06:01;;;;;;;35.97;19.50;;;;;;;;;;4810557;29;20064;-88
2023/01/29 07:08:27;;;;;;;34.83;21.73;;;;;;;;;;4795277;29;20061;-88
2023/01/29 07:10:58;;;;;;;32.08;19.60;;;;;;;;;;4780386;29;20141;-87
2023/01/29 07:13:24;;;;;;;33.10;20.17;;;;;;;;;;4810488;29;20093;-93
2023/01/29 07:15:50;;;;;;;37.53;19.25;;;;;;;;;;4780381;29;20053;-91
2023/01/29 07:18:16;;;;;;;29.50;19.90;;;;;;;;;;4795435;29;20063;-88
2023/01/29 07:20:43;;;;;;;31.30;20.00;;;;;;;;;;4780280;29;20061;-88
2023/01/29 07:23:13;;;;;;;29.10;18.10;;;;;;;;;;4811157;29;20532;-88
2023/01/29 07:25:39;;;;;;;33.47;19.98;;;;;;;;;;4810307;29;20046;-87
2023/01/29 07:28:06;;;;;;;36.72;20.05;;;;;;;;;;4780271;29;20062;-90
2023/01/29 07:30:32;;;;;;;29.58;18.05;;;;;;;;;;4810201;29;20061;-90
2023/01/29 07:33:05;;;;;;;36.08;19.63;;;;;;;;;;4809847;29;20054;-88
2023/01/29 07:35:31;;;;;;;35.97;22.15;;;;;;;;;;4810222;29;20089;-88
2023/01/29 07:37:57;;;;;;;32.47;20.05;;;;;;;;;;4810050;29;20046;-88
2023/01/29 07:40:24;;;;;;;33.65;20.45;;;;;;;;;;4809863;29;20066;-90
2023/01/29 07:42:50;;;;;;;30.45;19.20;;;;;;;;;;4810289;29;20549;-88
2023/01/29 07:45:16;;;;;;;31.17;18.55;;;;;;;;;;4810171;29;20061;-88
2023/01/29 07:47:42;;;;;;;28.42;18.08;;;;;;;;;;4779833;29;20542;-90
2023/01/29 07:50:08;;;;;;;30.42;19.17;;;;;;;;;;4809754;29;20623;-88
2023/01/29 07:52:34;;;;;;;35.78;20.42;;;;;;;;;;4810301;29;20055;-91
2023/01/29 07:55:00;;;;;;;30.75;17.70;;;;;;;;;;4810223;29;20118;-94
2023/01/29 07:57:26;;;;;;;34.15;19.75;;;;;;;;;;4780508;29;20504;-93
2023/01/29 07:59:52;;;;;;;31.70;19.00;;;;;;;;;;4810219;29;20058;-92
2023/01/29 08:02:18;;;;;;;31.33;21.17;;;;;;;;;;4780294;29;20401;-89
2023/01/29 08:04:44;;;;;;;32.20;21.27;;;;;;;;;;4795528;29;20061;-87
2023/01/29 08:07:10;;;;;;;32.78;21.55;;;;;;;;;;4809595;29;20085;-89
2023/01/29 08:09:37;;;;;;;29.30;18.83;;;;;;;;;;4809696;29;20051;-94
2023/01/29 08:12:03;;;;;;;33.80;20.40;;;;;;;;;;4794905;29;20054;-95
2023/01/29 08:14:29;;;;;;;34.17;21.92;;;;;;;;;;4809550;29;20058;-88
2023/01/29 08:16:55;;;;;;;32.30;20.48;;;;;;;;;;4779485;29;20112;-88
2023/01/29 08:19:21;;;;;;;32.38;22.30;;;;;;;;;;4779548;29;20062;-88
2023/01/29 08:21:47;;;;;;;34.10;21.23;;;;;;;;;;4808968;29;20051;-87
2023/01/29 08:24:13;;;;;;;32.60;21.13;;;;;;;;;;4809514;29;20416;-87
2023/01/29 08:26:39;;;;;;;35.78;23.58;;;;;;;;;;4779675;29;20411;-87
2023/01/29 08:29:05;;;;;;;38.08;22.23;;;;;;;;;;4809491;29;20046;-87
2023/01/29 08:31:32;;;;;;;31.90;19.15;;;;;;;;;;4809546;29;20065;-96
2023/01/29 08:33:58;;;;;;;34.35;20.38;;;;;;;;;;4809880;29;20050;-91
2023/01/29 08:36:24;;;;;;;37.03;23.05;;;;;;;;;;4809611;29;20140;-91
2023/01/29 08:38:50;;;;;;;32.50;21.40;;;;;;;;;;4809577;29;20054;-91
2023/01/29 08:41:17;;;;;;;33.80;21.90;;;;;;;;;;4809862;29;20139;-91
2023/01/29 08:43:43;;;;;;;33.28;20.20;;;;;;;;;;4779482;29;20085;-88
2023/01/29 08:46:11;;;;;;;39.95;22.33;;;;;;;;;;4810013;29;20165;-90
2023/01/29 08:48:38;;;;;;;38.63;23.10;;;;;;;;;;4780533;29;20109;-90
2023/01/29 08:51:04;;;;;;;34.58;22.25;;;;;;;;;;4779299;29;20101;-87
2023/01/29 08:53:31;;;;;;;37.72;22.98;;;;;;;;;;4779897;29;20416;-88
2023/01/29 08:55:57;;;;;;;32.65;21.20;;;;;;;;;;4809239;29;20050;-89
2023/01/29 08:58:23;;;;;;;34.88;18.38;;;;;;;;;;4778934;29;20054;-90
2023/01/29 09:00:49;;;;;;;43.30;24.02;;;;;;;;;;4808539;29;20516;-88
2023/01/29 09:03:15;;;;;;;34.50;21.75;;;;;;;;;;4808362;29;20054;-88
2023/01/29 09:05:41;;;;;;;34.47;22.88;;;;;;;;;;4808544;29;20054;-87
2023/01/29 09:08:08;;;;;;;34.67;22.52;;;;;;;;;;4808455;29;20133;-87
2023/01/29 09:10:35;;;;;;;41.85;24.75;;;;;;;;;;4808630;29;20061;-88
2023/01/29 09:13:01;;;;;;;35.88;22.25;;;;;;;;;;4808968;29;20058;-88
2023/01/29 09:15:27;;;;;;;32.35;21.13;;;;;;;;;;4808551;29;20058;-88
2023/01/29 09:17:53;;;;;;;30.52;18.85;;;;;;;;;;4779222;29;20058;-87
2023/01/29 09:20:19;;;;;;;31.55;19.20;;;;;;;;;;4778829;29;20050;-88
2023/01/29 09:22:46;;;;;;;37.67;22.13;;;;;;;;;;4779025;29;20498;-87
2023/01/29 09:25:12;;;;;;;32.20;20.05;;;;;;;;;;4808558;29;20089;-89
2023/01/29 09:27:38;;;;;;;32.05;20.63;;;;;;;;;;4809027;29;20096;-89
2023/01/29 09:30:05;;;;;;;34.25;20.73;;;;;;;;;;4808172;29;20065;-88
2023/01/29 09:32:33;;;;;;;40.33;21.83;;;;;;;;;;4808249;29;20065;-89
2023/01/29 09:34:59;;;;;;;39.20;20.52;;;;;;;;;;4808968;29;20153;-90
2023/01/29 09:37:25;;;;;;;41.58;22.00;;;;;;;;;;4793392;29;20172;-90
2023/01/29 09:39:51;;;;;;;39.80;21.30;;;;;;;;;;4808423;29;20485;-90
2023/01/29 09:42:24;;;;;;;39.05;22.95;;;;;;;;;;4778380;29;20533;-91
2023/01/29 09:45:09;;;;;;;35.80;20.63;;;;;;;;;;4808239;29;20520;-90
2023/01/29 09:47:36;;;;;;;39.60;22.25;;;;;;;;;;4808340;29;20104;-88
2023/01/29 09:50:07;;;;;;;34.92;20.27;;;;;;;;;;4807867;29;20058;-87
2023/01/29 09:52:39;;;;;;;39.40;23.50;;;;;;;;;;4808086;29;20062;-88
2023/01/29 09:55:05;;;;;;;37.13;21.35;;;;;;;;;;4807594;29;20058;-87
2023/01/29 09:57:38;;;;;;;35.55;20.70;;;;;;;;;;4808283;29;20059;-88
2023/01/29 10:00:05;;;;;;;32.55;18.75;;;;;;;;;;4807777;29;20516;-89
2023/01/29 10:02:42;;;;;;;35.22;20.77;;;;;;;;;;4807892;29;20058;-89
2023/01/29 10:05:45;;;;;;;44.42;22.25;;;4.70;99.90;;;;;;4807859;29;20137;-87
2023/01/29 10:08:30;;;;;;;40.58;20.75;;;;;;;;;;4807972;29;20055;-87
2023/01/29 10:11:01;;;;;;;30.88;18.83;;;;;;;;;;4808077;29;20135;-88
2023/01/29 10:13:36;;;;;;;39.53;21.38;;;;;;;;;;4808503;29;20062;-87
2023/01/29 10:16:08;;;;;;;34.38;21.63;;;;;;;;;;4822972;29;20050;-88
2023/01/29 10:19:00;;;;;;;42.92;23.42;;;;;;;;;;4807983;29;20050;-88
2023/01/29 10:21:26;;;;;;;40.13;21.30;;;;;;;;;;4789166;29;20069;-87
2023/01/29 10:23:57;;;;;;;41.00;22.67;;;;;;;;;;4808047;29;20065;-88
2023/01/29 10:26:26;;;;;;;35.28;22.20;;;;;;;;;;4807414;29;20416;-87
2023/01/29 10:28:54;;;;;;;39.33;23.40;;;;;;;;;;4807725;29;20050;-87
2023/01/29 10:31:37;;;;;;;39.80;21.77;;;;;;;;;;4807470;29;20069;-87
2023/01/29 10:34:09;;;;;;;45.00;20.55;;;;;;;;;;4810069;29;20546;-87
2023/01/29 10:36:38;;;;;;;34.40;22.73;;;;;;;;;;4811456;29;20047;-87
2023/01/29 10:39:04;;;;;;;32.17;20.45;;;;;;;;;;4811848;29;20062;-87
2023/01/29 10:41:33;;;;;;;34.30;20.48;;;;;;;;;;4796085;29;20116;-88
2023/01/29 10:44:20;;;;;;;34.38;21.95;;;;;;;;;;4811016;29;20096;-87
2023/01/29 10:47:05;;;;;;;29.42;18.25;;;;;;;;;;4811163;29;20456;-87
2023/01/29 10:49:37;;;;;;;32.42;20.40;;;;;;;;;;4811026;29;20058;-88
2023/01/29 10:52:07;;;;;;;29.75;19.08;;;;;;;;;;4811546;29;20055;-88
2023/01/29 10:54:36;;;;;;;30.48;19.73;;;;;;;;;;4811262;29;20065;-88
2023/01/29 10:57:22;;;;;;;37.15;19.65;;;;;;;;;;4810601;29;20051;-90
2023/01/29 11:00:06;;;;;;;34.95;18.98;;;;;;;;;;4795983;29;20408;-87
2023/01/29 11:02:33;;;;;;;39.10;18.20;;;;;;;;;;4811434;29;20093;-87
2023/01/29 11:05:02;;;;;;;32.78;19.58;;;;;;;;;;4810930;29;20058;-88
2023/01/29 11:07:30;;;;;;;36.53;21.92;;;;;;;;;;4810804;29;20062;-88
2023/01/29 11:10:14;;;;;;;36.65;22.00;;;;;;;;;;4810532;29;20058;-87
2023/01/29 11:12:42;;;;;;;32.92;19.67;;;;;;;;;;4811100;29;20066;-89
2023/01/29 11:15:11;;;;;;;39.47;21.15;;;;;;;;;;4810380;29;20046;-88
2023/01/29 11:17:37;;;;;;;34.33;20.15;;;;;;;;;;4810363;29;20054;-88
2023/01/29 11:20:05;;;;;;;30.40;18.38;;;;;;;;;;4810551;29;20054;-88
2023/01/29 11:22:32;;;;;;;34.65;18.92;;;;;;;;;;4810211;29;20527;-88
2023/01/29 11:25:18;;;;;;;38.78;20.98;;;;;;;;;;4810950;29;20077;-88
2023/01/29 11:27:45;;;;;;;31.10;17.13;;;;;;;;;;4809890;29;20065;-88
2023/01/29 11:30:16;;;;;;;30.50;17.45;;;;;;;;;;4810396;29;20530;-88
2023/01/29 11:32:43;;;;;;;28.40;16.50;;;;;;;;;;4810108;29;20055;-88
2023/01/29 11:35:12;;;;;;;32.22;18.73;;;;;;;;;;4810419;29;20055;-88
2023/01/29 11:37:39;;;;;;;34.58;16.80;;;;;;;;;;4810126;29;20078;-88
2023/01/29 11:40:17;;;;;;;26.55;15.48;;;;;;;;;;4810200;29;20055;-89
2023/01/29 11:42:44;;;;;;;27.73;15.50;;;;;;;;;;4809803;29;20524;-91
2023/01/29 11:45:25;;;;;;;27.17;14.70;;;;;;;;;;4809804;29;20054;-90
2023/01/29 11:47:55;;;;;;;23.15;15.20;;;;;;;;;;4810209;29;20063;-93
2023/01/29 11:50:32;;;;;;;28.30;16.25;;;;;;;;;;4810875;29;20054;-89
2023/01/29 11:53:00;;;;;;;22.05;15.35;;;;;;;;;;4809757;29;20146;-88
2023/01/29 11:55:34;;;;;;;23.20;13.43;;;;;;;;;;4810296;29;20073;-89
2023/01/29 11:58:16;;;;;;;20.40;13.98;;;;;;;;;;4810388;29;20531;-91
2023/01/29 12:00:45;;;;;;;19.05;12.90;;;;;;;;;;4810621;29;20058;-91
2023/01/29 12:03:15;;;;;;;24.20;14.77;;;;;;;;;;4811578;29;20077;-94
2023/01/29 12:05:53;;;;;;;24.23;13.90;;;;;;;;;;4810078;29;20527;-88
2023/01/29 12:08:21;;;;;;;20.00;14.02;;;;;;;;;;4810127;29;20089;-89
2023/01/29 12:10:47;;;;;;;28.98;15.00;;;;;;;;;;4809657;29;20141;-89
2023/01/29 12:13:18;;;;;;;21.33;13.43;;;;;;;;;;4825401;29;20054;-93
2023/01/29 12:15:45;;;;;;;25.00;14.10;;;;;;;;;;4810561;29;20050;-95
2023/01/29 12:18:26;;;;;;;15.82;10.68;;;;;;;;;;4810689;29;20102;-92
2023/01/29 12:20:55;;;;;;;17.05;11.45;;;;;;;;;;4811002;29;20070;-88
2023/01/29 12:23:35;;;;;;;17.27;10.73;;;;;;;;;;4810888;29;20569;-88
2023/01/29 12:26:12;;;;;;;19.08;12.30;;;;;;;;;;4810502;29;20090;-90
2023/01/29 12:29:14;;;;;;;15.75;9.27;;;;;;;;;;4810486;29;20046;-90
2023/01/29 12:31:55;;;;;;;20.10;12.52;;;;;;;;;;4723688;30;20508;-94
2023/01/29 12:34:45;;;;;;;17.25;11.60;;;;;;;;;;4803632;29;20177;-93
2023/01/29 12:37:20;;;;;;;18.50;12.25;;;;;;;;;;4826067;29;20572;-93
2023/01/29 12:39:47;;;;;;;19.80;11.90;;;;;;;;;;4810291;29;20053;-92
2023/01/29 12:42:19;;;;;;;21.33;11.82;;;;;;;;;;4780221;29;20484;-91
2023/01/29 12:44:48;;;;;;;13.30;7.60;;;;;;;;;;4810269;29;20115;-92
2023/01/29 12:47:20;;;;;;;13.10;8.95;;;;;;;;;;4810273;29;20089;-94
2023/01/29 12:49:50;;;;;;;18.85;8.73;;;;;;;;;;4811022;29;20504;-95
2023/01/29 12:52:19;;;;;;;15.13;8.13;;;;;;;;;;4810410;29;20099;-92
2023/01/29 12:54:51;;;;;;;12.55;8.27;;;;;;;;;;4810239;29;20141;-88
2023/01/29 12:57:29;;;;;;;15.20;9.77;;;;;;;;;;4808297;29;20061;-87
2023/01/29 12:59:59;;;;;;;13.05;9.10;;;;;;;;;;4808976;29;20133;-88
2023/01/29 13:02:47;;;;;;;15.20;7.93;;;;;;;;;;4809101;29;20115;-88
2023/01/29 13:05:26;;;;;;;13.43;8.98;;;;;;;;;;4809679;29;20134;-89
2023/01/29 13:07:57;;;;;;;13.32;8.32;;;;;;;;;;4808871;29;20084;-94
2023/01/29 13:10:29;;;;;;;13.90;9.68;;;;;;;;;;4808737;29;20058;-88
2023/01/29 13:13:01;;;;;;;20.13;11.25;;;;;;;;;;4808490;29;20066;-89
2023/01/29 13:15:38;;;;;;;17.88;11.23;;;;;;;;;;4808454;29;20059;-90
2023/01/29 13:18:31;;;;;;;16.17;10.68;;;5.90;99.90;;;;;;4808821;29;20062;-88
2023/01/29 13:20:58;;;;;;;21.92;11.90;;;;;;;;;;4793837;29;20461;-88
2023/01/29 13:23:46;;;;;;;20.10;12.13;;;;;;;;;;4808789;29;20062;-90
2023/01/29 13:26:12;;;;;;;20.73;13.18;;;;;;;;;;4809361;29;20054;-88
2023/01/29 13:28:48;;;;;;;19.35;12.07;;;;;;;;;;4779003;29;20096;-88
2023/01/29 13:31:20;;;;;;;20.70;11.98;;;;;;;;;;4808916;29;20382;-87
2023/01/29 13:33:59;;;;;;;17.67;11.68;;;;;;;;;;4812949;29;20065;-92
2023/01/29 13:36:27;;;;;;;22.20;12.05;;;;;;;;;;4816790;29;20054;-92
2023/01/29 13:39:05;;;;;;;12.88;9.25;;;;;;;;;;4824801;29;20062;-90
2023/01/29 13:41:36;;;;;;;13.05;9.20;;;;;;;;;;4807816;29;20069;-89
2023/01/29 13:44:04;;;;;;;16.80;11.27;;;;;;;;;;4808218;29;20405;-93
2023/01/29 13:46:31;;;;;;;20.65;11.55;;;;;;;;;;4809193;29;20062;-94
2023/01/29 13:49:03;;;;;;;14.25;10.05;;;;;;;;;;4808866;29;20058;-93
2023/01/29 13:51:33;;;;;;;16.15;11.40;;;;;;;;;;4779600;29;20062;-93
2023/01/29 13:54:06;;;;;;;12.50;8.18;;;;;;;;;;4809141;29;20349;-92
2023/01/29 13:56:32;;;;;;;21.08;11.57;;;;;;;;;;4809810;29;20133;-93
2023/01/29 13:58:59;;;;;;;19.20;12.45;;;;;;;;;;4809822;29;20531;-88
2023/01/29 14:01:46;;;;;;;23.95;13.95;;;5.50;99.90;;;;;;4808674;29;20050;-90
2023/01/29 14:04:22;;;;;;;20.88;12.70;;;;;;;;;;4808566;29;20066;-88
2023/01/29 14:06:52;;;;;;;20.90;12.57;;;;;;;;;;4808699;29;20051;-89
2023/01/29 14:09:30;;;;;;;20.20;12.27;;;;;;;;;;4810964;29;20115;-88
2023/01/29 14:11:56;;;;;;;19.92;12.63;;;;;;;;;;4812540;29;20141;-89
2023/01/29 14:15:01;;;;;;;18.13;11.73;;;5.30;99.90;;;;;;4781685;29;20054;-89
2023/01/29 14:17:28;;;;;;;18.38;12.27;;;;;;;;;;4795858;29;20111;-89
2023/01/29 14:20:17;;;;;;;18.90;11.98;;;;;;;;;;4782254;29;20061;-88
2023/01/29 14:22:43;;;;;;;20.75;11.90;;;;;;;;;;4811208;29;20066;-88
2023/01/29 14:25:17;;;;;;;18.00;12.45;;;;;;;;;;4811415;29;20239;-88
2023/01/29 14:27:47;;;;;;;22.25;13.20;;;;;;;;;;4811289;29;20058;-88
2023/01/29 14:30:16;;;;;;;20.95;12.90;;;;;;;;;;4811191;29;20496;-89
2023/01/29 14:32:46;;;;;;;23.27;13.48;;;;;;;;;;4811306;29;20119;-88
2023/01/29 14:35:20;;;;;;;23.27;13.30;;;;;;;;;;4810897;29;20057;-88
2023/01/29 14:37:51;;;;;;;22.27;12.00;;;;;;;;;;4810892;29;20516;-88
2023/01/29 14:40:17;;;;;;;20.45;12.75;;;;;;;;;;4811407;29;20054;-89
2023/01/29 14:43:03;;;;;;;20.13;13.10;;;;;;;;;;4810957;29;20123;-88
2023/01/29 14:45:29;;;;;;;22.25;11.60;;;;;;;;;;4795492;29;20055;-87
2023/01/29 14:48:00;;;;;;;20.90;12.05;;;;;;;;;;4810955;29;20080;-88
2023/01/29 14:50:31;;;;;;;21.05;13.07;;;;;;;;;;4811086;29;20485;-89
2023/01/29 14:53:04;;;;;;;24.52;13.73;;;;;;;;;;4811540;29;20061;-89
2023/01/29 14:55:42;;;;;;;25.40;15.95;;;;;;;;;;4810564;29;20144;-88
2023/01/29 14:58:16;;;;;;;23.88;15.50;;;;;;;;;;4810473;29;20141;-89
2023/01/29 15:00:44;;;;;;;31.90;15.35;;;;;;;;;;4810682;29;20100;-91
2023/01/29 15:03:18;;;;;;;28.08;15.18;;;;;;;;;;4811037;29;20061;-92
2023/01/29 15:05:44;;;;;;;;;;;;;;;;;;4811262;29;20129;-89